Terminal Aerodrome Forecast
Issued by NWS

Home | Current Version | Previous Version | Text Only | Print | Product List | Glossary On
Versions: 1 2 3 4 5 6 7 8 9 10 11 12
000
FTUS42 KTAE 170532
TAFDHN
TAF
KDHN 170532Z 1706/1806 16005KT P6SM SCT060 BKN250
     FM171000 15004KT 5SM BR SCT250
     FM171300 17008KT P6SM SCT050
     FM180400 00000KT 2SM BR OVC020=

USA.gov is the U.S. government's official web portal to all federal, state and local government web resources and services.